createdAt,value
2023-12-09T00:00:03.553Z,608.00
2023-12-09T00:01:03.532Z,607.00
2023-12-09T00:02:03.522Z,610.00
2023-12-09T00:03:03.515Z,606.00
2023-12-09T00:56:34.425Z,607.00
2023-12-09T00:56:47.523Z,608.00
2023-12-09T00:57:46.579Z,656.00
2023-12-09T00:58:46.544Z,850.00
2023-12-09T00:59:46.554Z,1094.00
2023-12-09T01:00:46.614Z,1355.00
2023-12-09T01:01:46.522Z,1546.00
2023-12-09T01:02:46.553Z,1406.00
2023-12-09T01:03:46.632Z,1300.00
2023-12-09T01:04:46.522Z,1195.00
2023-12-09T01:05:46.531Z,1131.00
2023-12-09T01:06:46.484Z,1058.00
2023-12-09T01:07:46.469Z,1010.00
2023-12-09T01:08:46.467Z,960.00
2023-12-09T01:09:46.453Z,904.00
2023-12-09T01:10:46.459Z,878.00
2023-12-09T01:11:46.502Z,844.00
2023-12-09T01:12:46.504Z,823.00
2023-12-09T01:13:46.407Z,798.00
2023-12-09T01:14:46.412Z,776.00
2023-12-09T01:15:46.387Z,748.00
2023-12-09T01:16:46.380Z,736.00
2023-12-09T01:17:46.433Z,710.00
2023-12-09T01:18:46.414Z,700.00
2023-12-09T01:19:46.420Z,692.00
2023-12-09T01:20:46.342Z,686.00
2023-12-09T01:22:08.293Z,662.00
2023-12-09T01:22:46.326Z,662.00
2023-12-09T01:23:46.339Z,664.00
2023-12-09T01:24:46.320Z,666.00
2023-12-09T01:25:46.300Z,664.00
2023-12-09T01:26:46.309Z,658.00
2023-12-09T01:27:46.306Z,656.00
2023-12-09T01:28:46.262Z,650.00
2023-12-09T01:29:46.263Z,646.00
2023-12-09T01:30:46.250Z,643.00
2023-12-09T01:31:46.311Z,643.00
2023-12-09T01:32:46.261Z,643.00
2023-12-09T01:33:46.361Z,638.00
2023-12-09T01:34:46.434Z,634.00
2023-12-09T01:35:46.206Z,631.00
2023-12-09T01:36:46.196Z,632.00
2023-12-09T01:37:46.190Z,630.00
2023-12-09T01:38:46.215Z,630.00
2023-12-09T01:39:46.176Z,625.00
2023-12-09T01:40:46.192Z,624.00
2023-12-09T01:41:46.153Z,623.00
2023-12-09T01:42:46.188Z,618.00
2023-12-09T01:43:46.158Z,621.00
2023-12-09T01:44:46.126Z,616.00
2023-12-09T01:45:46.122Z,618.00
2023-12-09T01:46:46.148Z,616.00
2023-12-09T01:47:46.122Z,616.00
2023-12-09T01:49:12.749Z,613.00
2023-12-09T01:49:46.316Z,614.00
2023-12-09T01:50:46.135Z,616.00
2023-12-09T01:51:46.169Z,619.00
2023-12-09T01:52:46.046Z,623.00
2023-12-09T01:53:46.053Z,625.00
2023-12-09T01:54:46.053Z,626.00
2023-12-09T01:55:46.024Z,621.00
2023-12-09T01:56:46.014Z,615.00
2023-12-09T01:57:46.011Z,617.00
2023-12-09T01:58:46.002Z,615.00
2023-12-09T01:59:46.012Z,614.00
2023-12-09T02:00:46.313Z,611.00
2023-12-09T02:01:45.975Z,611.00
2023-12-09T02:02:46.194Z,612.00
2023-12-09T02:03:46.113Z,611.00
2023-12-09T02:04:46.022Z,611.00
2023-12-09T02:05:45.966Z,609.00
2023-12-09T02:06:45.924Z,606.00
2023-12-09T02:07:45.916Z,607.00
2023-12-09T02:08:45.914Z,608.00
2023-12-09T02:09:45.921Z,606.00
2023-12-09T02:10:45.910Z,606.00
2023-12-09T02:11:45.873Z,605.00
2023-12-09T02:12:45.876Z,604.00
2023-12-09T02:13:45.867Z,605.00
2023-12-09T02:14:45.853Z,602.00
2023-12-09T02:15:45.966Z,600.00
2023-12-09T02:16:45.840Z,602.00
2023-12-09T02:17:45.838Z,604.00
2023-12-09T02:18:45.933Z,603.00
2023-12-09T02:19:45.807Z,604.00
2023-12-09T02:20:45.842Z,605.00
2023-12-09T02:21:45.788Z,604.00
2023-12-09T02:22:45.805Z,603.00
2023-12-09T02:23:45.781Z,602.00
2023-12-09T02:24:45.818Z,603.00
2023-12-09T02:25:45.771Z,606.00
2023-12-09T02:26:45.754Z,602.00
2023-12-09T02:27:45.728Z,602.00
2023-12-09T02:28:45.733Z,606.00
2023-12-09T02:29:45.723Z,606.00
2023-12-09T02:30:45.724Z,603.00
2023-12-09T02:31:45.730Z,605.00
2023-12-09T02:32:45.798Z,606.00
2023-12-09T02:33:45.734Z,604.00
2023-12-09T02:34:45.738Z,606.00
2023-12-09T02:35:45.678Z,604.00
2023-12-09T02:36:45.649Z,604.00
2023-12-09T02:37:45.638Z,604.00
2023-12-09T02:38:45.636Z,604.00
2023-12-09T02:39:45.621Z,606.00
2023-12-09T02:40:45.670Z,604.00
2023-12-09T02:41:45.602Z,607.00
2023-12-09T02:42:45.606Z,604.00
2023-12-09T02:43:45.584Z,600.00
2023-12-09T02:44:45.579Z,604.00
2023-12-09T02:45:45.627Z,605.00
2023-12-09T02:46:45.562Z,602.00
2023-12-09T02:47:45.590Z,605.00
2023-12-09T02:48:45.730Z,607.00
2023-12-09T02:49:45.630Z,603.00
2023-12-09T02:50:45.578Z,600.00
2023-12-09T02:51:45.526Z,600.00
2023-12-09T02:52:45.503Z,605.00
2023-12-09T02:53:45.512Z,604.00
2023-12-09T02:54:45.477Z,604.00
2023-12-09T02:55:45.485Z,607.00
2023-12-09T02:56:45.488Z,604.00
2023-12-09T02:57:45.495Z,604.00
2023-12-09T02:58:45.499Z,605.00
2023-12-09T02:59:45.446Z,606.00
2023-12-09T03:00:45.529Z,603.00
2023-12-09T03:01:45.421Z,608.00
2023-12-09T03:02:45.437Z,602.00
2023-12-09T03:03:45.552Z,604.00
2023-12-09T03:04:45.424Z,604.00
2023-12-09T03:05:45.385Z,604.00
2023-12-09T03:06:45.404Z,603.00
2023-12-09T03:07:45.370Z,606.00
2023-12-09T03:08:45.355Z,606.00
2023-12-09T03:09:45.362Z,602.00
2023-12-09T03:10:45.330Z,601.00
2023-12-09T03:11:45.365Z,601.00
2023-12-09T03:12:45.338Z,606.00
2023-12-09T03:13:45.342Z,606.00
2023-12-09T03:14:45.306Z,611.00
2023-12-09T03:15:45.304Z,603.00
2023-12-09T03:16:45.284Z,605.00
2023-12-09T03:17:45.456Z,602.00
2023-12-09T03:18:45.445Z,605.00
2023-12-09T03:19:45.871Z,606.00
2023-12-09T03:20:45.244Z,607.00
2023-12-09T03:21:45.235Z,608.00
2023-12-09T03:22:45.230Z,604.00
2023-12-09T03:23:45.223Z,611.00
2023-12-09T03:24:45.206Z,608.00
2023-12-09T03:25:45.196Z,605.00
2023-12-09T03:26:44.193Z,607.00
2023-12-09T03:27:45.176Z,604.00
2023-12-09T03:28:45.182Z,608.00
2023-12-09T03:29:45.176Z,608.00
2023-12-09T03:30:45.151Z,604.00
2023-12-09T03:31:45.147Z,607.00
2023-12-09T03:32:45.154Z,606.00
2023-12-09T03:33:45.300Z,608.00
2023-12-09T03:34:45.186Z,602.00
2023-12-09T03:35:45.137Z,604.00
2023-12-09T03:36:45.135Z,603.00
2023-12-09T03:37:45.089Z,604.00
2023-12-09T03:38:45.088Z,605.00
2023-12-09T03:39:45.062Z,605.00
2023-12-09T03:40:45.055Z,609.00
2023-12-09T03:41:44.051Z,610.00
2023-12-09T03:42:45.040Z,603.00
2023-12-09T03:43:45.046Z,608.00
2023-12-09T03:44:45.025Z,609.00
2023-12-09T03:45:45.022Z,604.00
2023-12-09T03:46:45.013Z,607.00
2023-12-09T03:47:45.056Z,604.00
2023-12-09T03:48:45.224Z,606.00
2023-12-09T03:49:45.217Z,606.00
2023-12-09T03:50:44.973Z,605.00
2023-12-09T03:51:45.011Z,602.00
2023-12-09T03:52:43.965Z,604.00
2023-12-09T03:53:44.946Z,606.00
2023-12-09T03:54:44.928Z,605.00
2023-12-09T03:55:44.931Z,603.00
2023-12-09T03:56:44.918Z,603.00
2023-12-09T03:57:44.907Z,604.00
2023-12-09T03:58:44.899Z,605.00
2023-12-09T03:59:44.887Z,602.00
2023-12-09T04:00:45.016Z,602.00
2023-12-09T04:01:44.873Z,607.00
2023-12-09T04:02:44.861Z,606.00
2023-12-09T04:03:45.052Z,608.00
2023-12-09T04:04:44.857Z,608.00
2023-12-09T04:05:44.896Z,604.00
2023-12-09T04:06:45.056Z,606.00
2023-12-09T04:07:44.838Z,608.00
2023-12-09T04:08:44.805Z,607.00
2023-12-09T04:09:44.828Z,608.00
2023-12-09T04:10:44.797Z,608.00
2023-12-09T04:11:44.780Z,609.00
2023-12-09T04:12:44.811Z,607.00
2023-12-09T04:13:44.766Z,603.00
2023-12-09T04:14:44.760Z,605.00
2023-12-09T04:15:44.786Z,606.00
2023-12-09T04:16:44.729Z,608.00
2023-12-09T04:17:44.786Z,606.00
2023-12-09T04:18:44.804Z,605.00
2023-12-09T04:19:44.845Z,608.00
2023-12-09T04:20:44.756Z,605.00
2023-12-09T04:21:44.705Z,610.00
2023-12-09T04:22:44.682Z,609.00
2023-12-09T04:23:44.705Z,604.00
2023-12-09T04:24:44.660Z,604.00
2023-12-09T04:25:44.645Z,606.00
2023-12-09T04:26:44.657Z,603.00
2023-12-09T04:27:44.682Z,603.00
2023-12-09T04:28:44.638Z,604.00
2023-12-09T04:29:44.613Z,608.00
2023-12-09T04:30:44.613Z,606.00
2023-12-09T04:31:44.636Z,607.00
2023-12-09T04:32:44.812Z,605.00
2023-12-09T04:33:44.636Z,604.00
2023-12-09T04:34:44.591Z,605.00
2023-12-09T04:35:44.577Z,612.00
2023-12-09T04:36:44.571Z,610.00
2023-12-09T04:37:44.539Z,609.00
2023-12-09T04:38:44.584Z,606.00
2023-12-09T04:39:44.561Z,610.00
2023-12-09T04:40:44.535Z,606.00
2023-12-09T04:41:44.535Z,606.00
2023-12-09T04:42:44.586Z,610.00
2023-12-09T04:43:44.489Z,605.00
2023-12-09T04:44:44.485Z,606.00
2023-12-09T04:45:44.503Z,610.00
2023-12-09T04:46:44.555Z,607.00
2023-12-09T04:47:44.589Z,607.00
2023-12-09T04:48:44.607Z,610.00
2023-12-09T04:49:44.501Z,608.00
2023-12-09T04:50:44.424Z,606.00
2023-12-09T04:51:44.435Z,609.00
2023-12-09T04:52:44.416Z,606.00
2023-12-09T04:53:44.398Z,606.00
2023-12-09T04:54:44.393Z,608.00
2023-12-09T04:55:44.400Z,607.00
2023-12-09T04:56:44.366Z,607.00
2023-12-09T04:57:44.368Z,609.00
2023-12-09T04:58:44.350Z,609.00
2023-12-09T04:59:44.344Z,611.00
2023-12-09T05:00:44.426Z,606.00
2023-12-09T05:01:44.316Z,609.00
2023-12-09T05:02:44.335Z,610.00
2023-12-09T05:03:44.396Z,610.00
2023-12-09T05:04:44.296Z,608.00
2023-12-09T05:05:44.338Z,606.00
2023-12-09T05:06:44.364Z,608.00
2023-12-09T05:07:44.269Z,608.00
2023-12-09T05:08:44.253Z,607.00
2023-12-09T05:09:44.264Z,610.00
2023-12-09T05:10:44.236Z,608.00
2023-12-09T05:11:44.260Z,608.00
2023-12-09T05:12:44.256Z,611.00
2023-12-09T05:13:44.229Z,607.00
2023-12-09T05:14:44.201Z,608.00
2023-12-09T05:15:44.308Z,608.00
2023-12-09T05:16:44.176Z,605.00
2023-12-09T05:17:44.304Z,608.00
2023-12-09T05:18:44.255Z,608.00
2023-12-09T05:19:44.632Z,609.00
2023-12-09T05:20:44.146Z,608.00
2023-12-09T05:21:44.151Z,607.00
2023-12-09T05:22:44.134Z,606.00
2023-12-09T05:23:44.117Z,607.00
2023-12-09T05:24:44.133Z,606.00
2023-12-09T05:25:44.129Z,606.00
2023-12-09T05:26:44.086Z,606.00
2023-12-09T05:27:44.105Z,608.00
2023-12-09T05:28:44.072Z,609.00
2023-12-09T05:29:44.403Z,609.00
2023-12-09T05:30:44.112Z,612.00
2023-12-09T05:31:44.058Z,609.00
2023-12-09T05:32:44.165Z,608.00
2023-12-09T05:33:44.222Z,606.00
2023-12-09T05:34:44.159Z,606.00
2023-12-09T05:35:44.094Z,608.00
2023-12-09T05:36:44.011Z,608.00
2023-12-09T05:37:44.089Z,607.00
2023-12-09T05:38:43.982Z,611.00
2023-12-09T05:39:43.971Z,611.00
2023-12-09T05:40:43.989Z,608.00
2023-12-09T05:41:43.949Z,614.00
2023-12-09T05:42:44.036Z,609.00
2023-12-09T05:43:43.960Z,606.00
2023-12-09T05:44:43.937Z,606.00
2023-12-09T05:45:43.979Z,610.00
2023-12-09T05:46:43.915Z,607.00
2023-12-09T05:47:43.975Z,609.00
2023-12-09T05:48:43.025Z,609.00
2023-12-09T05:49:43.994Z,608.00
2023-12-09T05:50:43.878Z,606.00
2023-12-09T05:51:43.864Z,608.00
2023-12-09T05:52:43.922Z,606.00
2023-12-09T05:53:43.836Z,611.00
2023-12-09T05:54:43.848Z,610.00
2023-12-09T05:55:43.821Z,608.00
2023-12-09T05:56:43.859Z,608.00
2023-12-09T05:57:43.825Z,610.00
2023-12-09T05:58:43.824Z,613.00
2023-12-09T05:59:43.846Z,606.00
2023-12-09T06:00:43.858Z,611.00
2023-12-09T06:01:43.762Z,610.00
2023-12-09T06:02:43.782Z,610.00
2023-12-09T06:03:43.768Z,608.00
2023-12-09T06:04:43.823Z,612.00
2023-12-09T06:05:43.799Z,606.00
2023-12-09T06:06:43.774Z,609.00
2023-12-09T06:07:43.752Z,608.00
2023-12-09T06:08:43.746Z,607.00
2023-12-09T06:09:43.753Z,608.00
2023-12-09T06:10:43.690Z,603.00
2023-12-09T06:11:43.690Z,603.00
2023-12-09T06:12:43.770Z,608.00
2023-12-09T06:13:43.673Z,605.00
2023-12-09T06:14:43.653Z,602.00
2023-12-09T06:15:43.681Z,607.00
2023-12-09T06:16:43.638Z,608.00
2023-12-09T06:17:43.672Z,604.00
2023-12-09T06:18:43.666Z,609.00
2023-12-09T06:19:43.678Z,607.00
2023-12-09T06:20:43.601Z,610.00
2023-12-09T06:21:43.617Z,608.00
2023-12-09T06:22:43.636Z,604.00
2023-12-09T06:23:43.561Z,611.00
2023-12-09T06:24:43.736Z,606.00
2023-12-09T06:25:43.558Z,606.00
2023-12-09T06:26:43.553Z,609.00
2023-12-09T06:27:43.564Z,609.00
2023-12-09T06:28:43.554Z,608.00
2023-12-09T06:29:43.541Z,608.00
2023-12-09T06:30:43.523Z,611.00
2023-12-09T06:31:43.557Z,612.00
2023-12-09T06:32:43.636Z,604.00
2023-12-09T06:33:43.635Z,609.00
2023-12-09T06:34:43.540Z,609.00
2023-12-09T06:35:43.455Z,611.00
2023-12-09T06:36:43.452Z,602.00
2023-12-09T06:37:43.519Z,610.00
2023-12-09T06:38:43.429Z,607.00
2023-12-09T06:39:43.469Z,610.00
2023-12-09T06:40:43.406Z,609.00
2023-12-09T06:41:43.407Z,611.00
2023-12-09T06:42:43.547Z,610.00
2023-12-09T06:43:43.403Z,609.00
2023-12-09T06:44:43.372Z,610.00
2023-12-09T06:45:43.386Z,608.00
2023-12-09T06:46:43.356Z,606.00
2023-12-09T06:47:43.466Z,607.00
2023-12-09T06:48:43.455Z,606.00
2023-12-09T06:49:43.506Z,611.00
2023-12-09T06:50:43.317Z,609.00
2023-12-09T06:51:43.329Z,608.00
2023-12-09T06:52:43.301Z,609.00
2023-12-09T06:53:43.293Z,609.00
2023-12-09T06:54:43.385Z,605.00
2023-12-09T06:55:43.277Z,611.00
2023-12-09T06:56:43.276Z,607.00
2023-12-09T06:57:43.339Z,610.00
2023-12-09T06:58:43.241Z,605.00
2023-12-09T06:59:43.275Z,610.00
2023-12-09T07:00:43.320Z,609.00
2023-12-09T07:01:43.223Z,611.00
2023-12-09T07:02:52.927Z,613.00
2023-12-09T07:03:43.320Z,613.00
2023-12-09T07:04:43.325Z,613.00
2023-12-09T07:05:43.263Z,613.00
2023-12-09T07:06:42.195Z,613.00
2023-12-09T07:07:43.160Z,616.00
2023-12-09T07:08:43.234Z,613.00
2023-12-09T07:09:43.176Z,614.00
2023-12-09T07:10:43.139Z,612.00
2023-12-09T07:11:43.135Z,610.00
2023-12-09T07:12:43.171Z,613.00
2023-12-09T07:13:43.158Z,614.00
2023-12-09T07:14:43.105Z,609.00
2023-12-09T07:15:43.189Z,615.00
2023-12-09T07:16:43.083Z,612.00
2023-12-09T07:17:43.314Z,614.00
2023-12-09T07:18:43.167Z,616.00
2023-12-09T07:19:43.433Z,612.00
2023-12-09T07:20:43.045Z,610.00
2023-12-09T07:21:43.092Z,606.00
2023-12-09T07:22:43.050Z,611.00
2023-12-09T07:23:43.028Z,609.00
2023-12-09T07:24:43.179Z,613.00
2023-12-09T07:25:43.002Z,613.00
2023-12-09T07:26:42.997Z,612.00
2023-12-09T07:27:43.024Z,614.00
2023-12-09T07:28:43.012Z,614.00
2023-12-09T07:29:42.963Z,610.00
2023-12-09T07:30:43.004Z,606.00
2023-12-09T07:31:42.944Z,616.00
2023-12-09T07:32:43.045Z,612.00
2023-12-09T07:33:43.100Z,614.00
2023-12-09T07:34:42.966Z,611.00
2023-12-09T07:35:42.932Z,612.00
2023-12-09T07:36:42.916Z,612.00
2023-12-09T07:37:44.426Z,614.00
2023-12-09T07:38:42.922Z,614.00
2023-12-09T07:39:42.951Z,614.00
2023-12-09T07:40:42.870Z,612.00
2023-12-09T07:41:42.947Z,611.00
2023-12-09T07:42:42.865Z,614.00
2023-12-09T07:43:42.830Z,614.00
2023-12-09T07:44:42.824Z,614.00
2023-12-09T07:45:42.841Z,612.00
2023-12-09T07:46:42.805Z,611.00
2023-12-09T07:47:42.833Z,612.00
2023-12-09T07:48:42.903Z,609.00
2023-12-09T07:49:42.876Z,611.00
2023-12-09T07:50:42.802Z,612.00
2023-12-09T07:51:41.804Z,612.00
2023-12-09T07:52:42.748Z,612.00
2023-12-09T07:53:42.744Z,614.00
2023-12-09T07:54:42.791Z,614.00
2023-12-09T07:55:42.725Z,619.00
2023-12-09T07:56:41.724Z,612.00
2023-12-09T07:57:42.762Z,612.00
2023-12-09T07:58:42.696Z,614.00
2023-12-09T07:59:42.701Z,617.00
2023-12-09T08:00:42.778Z,616.00
2023-12-09T08:01:42.732Z,618.00
2023-12-09T08:02:42.672Z,618.00
2023-12-09T08:03:42.773Z,617.00
2023-12-09T08:04:42.683Z,615.00
2023-12-09T08:05:45.714Z,615.00
2023-12-09T08:06:42.889Z,616.00
2023-12-09T08:07:42.824Z,616.00
2023-12-09T08:08:42.794Z,616.00
2023-12-09T08:09:42.817Z,618.00
2023-12-09T08:10:42.792Z,620.00
2023-12-09T08:11:42.766Z,620.00
2023-12-09T08:12:42.815Z,617.00
2023-12-09T08:13:42.742Z,614.00
2023-12-09T08:14:42.738Z,616.00
2023-12-09T08:15:42.787Z,614.00
2023-12-09T08:16:43.235Z,617.00
2023-12-09T08:17:42.808Z,617.00
2023-12-09T08:18:42.784Z,618.00
2023-12-09T08:19:42.802Z,618.00
2023-12-09T08:20:42.682Z,616.00
2023-12-09T08:21:42.696Z,618.00
2023-12-09T08:22:42.694Z,613.00
2023-12-09T08:23:42.716Z,617.00
2023-12-09T08:24:42.658Z,619.00
2023-12-09T08:25:42.641Z,618.00
2023-12-09T08:26:42.632Z,614.00
2023-12-09T08:27:42.686Z,615.00
2023-12-09T08:28:42.641Z,618.00
2023-12-09T08:29:42.604Z,617.00
2023-12-09T08:30:42.665Z,618.00
2023-12-09T08:31:42.612Z,615.00
2023-12-09T08:32:42.703Z,619.00
2023-12-09T08:33:42.856Z,619.00
2023-12-09T08:34:46.473Z,619.00
2023-12-09T08:35:42.545Z,619.00
2023-12-09T08:36:42.600Z,619.00
2023-12-09T08:37:42.536Z,619.00
2023-12-09T08:38:42.564Z,620.00
2023-12-09T08:39:42.578Z,623.00
2023-12-09T08:40:42.502Z,615.00
2023-12-09T08:41:42.528Z,619.00
2023-12-09T08:42:42.601Z,618.00
2023-12-09T08:43:42.496Z,616.00
2023-12-09T08:44:42.462Z,619.00
2023-12-09T08:45:42.499Z,618.00
2023-12-09T08:46:42.486Z,616.00
2023-12-09T08:47:45.168Z,614.00
2023-12-09T08:48:42.577Z,615.00
2023-12-09T08:49:42.485Z,614.00
2023-12-09T08:50:42.407Z,616.00
2023-12-09T08:51:42.604Z,617.00
2023-12-09T08:52:42.389Z,622.00
2023-12-09T08:53:42.386Z,618.00
2023-12-09T08:54:42.434Z,615.00
2023-12-09T08:55:42.390Z,620.00
2023-12-09T08:56:42.448Z,619.00
2023-12-09T08:57:42.430Z,619.00
2023-12-09T08:58:42.372Z,622.00
2023-12-09T08:59:42.328Z,619.00
2023-12-09T09:00:42.440Z,620.00
2023-12-09T09:01:42.370Z,620.00
2023-12-09T09:02:42.317Z,618.00
2023-12-09T09:03:42.388Z,621.00
2023-12-09T09:04:42.304Z,619.00
2023-12-09T09:05:42.305Z,621.00
2023-12-09T09:06:42.369Z,619.00
2023-12-09T09:07:42.280Z,621.00
2023-12-09T09:08:42.244Z,620.00
2023-12-09T09:09:42.307Z,620.00
2023-12-09T09:10:42.236Z,622.00
2023-12-09T09:11:42.249Z,617.00
2023-12-09T09:12:42.378Z,620.00
2023-12-09T09:13:42.234Z,621.00
2023-12-09T09:14:42.186Z,616.00
2023-12-09T09:15:42.226Z,618.00
2023-12-09T09:16:42.222Z,621.00
2023-12-09T09:17:42.217Z,620.00
2023-12-09T09:18:42.229Z,621.00
2023-12-09T09:19:42.182Z,619.00
2023-12-09T09:20:42.144Z,622.00
2023-12-09T09:21:42.211Z,623.00
2023-12-09T09:23:41.105Z,624.00
2023-12-09T09:24:42.120Z,618.00
2023-12-09T09:25:42.095Z,623.00
2023-12-09T09:26:42.094Z,621.00
2023-12-09T09:27:42.191Z,620.00
2023-12-09T09:28:42.070Z,622.00
2023-12-09T09:29:42.046Z,621.00
2023-12-09T09:30:42.063Z,619.00
2023-12-09T09:31:42.032Z,617.00
2023-12-09T09:32:42.387Z,619.00
2023-12-09T09:33:42.130Z,622.00
2023-12-09T09:34:42.054Z,619.00
2023-12-09T09:35:42.005Z,622.00
2023-12-09T09:36:42.309Z,621.00
2023-12-09T09:37:41.983Z,624.00
2023-12-09T09:38:41.974Z,622.00
2023-12-09T09:39:41.985Z,622.00
2023-12-09T09:40:41.958Z,619.00
2023-12-09T09:41:41.937Z,619.00
2023-12-09T09:42:41.951Z,619.00
2023-12-09T09:43:41.970Z,620.00
2023-12-09T09:44:41.917Z,620.00
2023-12-09T09:45:41.938Z,621.00
2023-12-09T09:46:41.904Z,620.00
2023-12-09T09:47:41.945Z,624.00
2023-12-09T09:48:41.929Z,626.00
2023-12-09T09:49:42.004Z,621.00
2023-12-09T09:50:41.865Z,618.00
2023-12-09T09:51:41.900Z,623.00
2023-12-09T09:52:41.870Z,622.00
2023-12-09T09:53:41.868Z,619.00
2023-12-09T09:54:41.926Z,623.00
2023-12-09T09:55:41.811Z,621.00
2023-12-09T09:56:41.805Z,619.00
2023-12-09T09:57:41.841Z,618.00
2023-12-09T09:58:41.820Z,624.00
2023-12-09T09:59:41.816Z,625.00
2023-12-09T10:00:41.920Z,624.00
2023-12-09T10:01:41.816Z,620.00
2023-12-09T10:02:41.845Z,620.00
2023-12-09T10:03:41.836Z,620.00
2023-12-09T10:04:41.825Z,623.00
2023-12-09T10:05:41.731Z,624.00
2023-12-09T10:06:41.772Z,623.00
2023-12-09T10:07:41.857Z,620.00
2023-12-09T10:08:41.695Z,622.00
2023-12-09T10:09:41.851Z,622.00
2023-12-09T10:10:41.713Z,622.00
2023-12-09T10:11:41.666Z,620.00
2023-12-09T10:12:41.809Z,622.00
2023-12-09T10:13:41.657Z,620.00
2023-12-09T10:14:41.717Z,621.00
2023-12-09T10:15:41.731Z,622.00
2023-12-09T10:16:41.635Z,619.00
2023-12-09T10:17:41.739Z,622.00
2023-12-09T10:18:41.690Z,622.00
2023-12-09T10:19:41.670Z,624.00
2023-12-09T10:20:41.577Z,621.00
2023-12-09T10:21:41.615Z,623.00
2023-12-09T10:22:41.817Z,623.00
2023-12-09T10:23:41.559Z,619.00
2023-12-09T10:24:49.941Z,621.00
2023-12-09T10:25:41.558Z,621.00
2023-12-09T10:26:41.539Z,622.00
2023-12-09T10:27:41.750Z,623.00
2023-12-09T10:28:41.537Z,626.00
2023-12-09T10:29:43.465Z,624.00
2023-12-09T10:30:41.552Z,621.00
2023-12-09T10:31:41.513Z,622.00
2023-12-09T10:32:41.554Z,625.00
2023-12-09T10:33:41.759Z,624.00
2023-12-09T10:34:41.518Z,627.00
2023-12-09T10:35:41.461Z,629.00
2023-12-09T10:36:41.488Z,626.00
2023-12-09T10:37:41.512Z,625.00
2023-12-09T10:38:41.421Z,626.00
2023-12-09T10:39:41.469Z,623.00
2023-12-09T10:40:41.402Z,626.00
2023-12-09T10:41:41.389Z,623.00
2023-12-09T10:42:41.452Z,626.00
2023-12-09T10:43:41.371Z,620.00
2023-12-09T10:44:41.361Z,626.00
2023-12-09T10:45:41.410Z,621.00
2023-12-09T10:46:41.345Z,622.00
2023-12-09T10:47:41.492Z,623.00
2023-12-09T10:48:41.450Z,624.00
2023-12-09T10:49:41.438Z,624.00
2023-12-09T10:50:41.370Z,625.00
2023-12-09T10:51:41.321Z,626.00
2023-12-09T10:52:41.287Z,626.00
2023-12-09T10:53:41.278Z,626.00
2023-12-09T10:54:41.337Z,626.00
2023-12-09T10:55:41.283Z,624.00
2023-12-09T10:56:41.261Z,621.00
2023-12-09T10:57:41.316Z,625.00
2023-12-09T10:58:41.229Z,623.00
2023-12-09T10:59:41.224Z,626.00
2023-12-09T11:00:41.365Z,625.00
2023-12-09T11:01:41.205Z,625.00
2023-12-09T11:02:41.224Z,624.00
2023-12-09T11:03:41.253Z,626.00
2023-12-09T11:04:41.262Z,625.00
2023-12-09T11:05:41.265Z,625.00
2023-12-09T11:06:41.232Z,625.00
2023-12-09T11:07:41.159Z,623.00
2023-12-09T11:08:41.158Z,626.00
2023-12-09T11:09:41.194Z,624.00
2023-12-09T11:10:41.128Z,623.00
2023-12-09T11:11:41.119Z,624.00
2023-12-09T11:12:41.124Z,627.00
2023-12-09T11:13:41.103Z,623.00
2023-12-09T11:14:41.084Z,624.00
2023-12-09T11:15:41.237Z,625.00
2023-12-09T11:16:41.071Z,627.00
2023-12-09T11:17:41.208Z,627.00
2023-12-09T11:18:41.203Z,621.00
2023-12-09T11:19:41.271Z,624.00
2023-12-09T11:20:41.074Z,623.00
2023-12-09T11:21:41.055Z,623.00
2023-12-09T11:22:41.017Z,624.00
2023-12-09T11:23:42.179Z,625.00
2023-12-09T11:24:41.010Z,625.00
2023-12-09T11:25:41.095Z,628.00
2023-12-09T11:26:40.972Z,625.00
2023-12-09T11:27:40.962Z,627.00
2023-12-09T11:28:40.956Z,625.00
2023-12-09T11:29:40.946Z,625.00
2023-12-09T11:30:41.007Z,623.00
2023-12-09T11:31:40.930Z,626.00
2023-12-09T11:32:40.959Z,626.00
2023-12-09T11:33:41.138Z,625.00
2023-12-09T11:34:41.120Z,627.00
2023-12-09T11:35:41.386Z,626.00
2023-12-09T11:36:41.000Z,623.00
2023-12-09T11:37:40.876Z,626.00
2023-12-09T11:38:40.878Z,626.00
2023-12-09T11:39:40.972Z,628.00
2023-12-09T11:40:40.855Z,626.00
2023-12-09T11:41:40.896Z,630.00
2023-12-09T11:42:40.855Z,628.00
2023-12-09T11:43:40.818Z,628.00
2023-12-09T11:44:40.825Z,628.00
2023-12-09T11:45:40.831Z,626.00
2023-12-09T11:46:40.790Z,627.00
2023-12-09T11:47:40.856Z,631.00
2023-12-09T11:48:40.894Z,626.00
2023-12-09T11:49:40.792Z,626.00
2023-12-09T11:50:39.760Z,627.00
2023-12-09T11:51:40.845Z,625.00
2023-12-09T11:52:40.741Z,626.00
2023-12-09T11:53:40.729Z,628.00
2023-12-09T11:54:40.836Z,626.00
2023-12-09T11:55:40.760Z,630.00
2023-12-09T11:56:40.790Z,628.00
2023-12-09T11:57:39.713Z,628.00
2023-12-09T11:58:40.686Z,627.00
2023-12-09T11:59:40.678Z,629.00
2023-12-09T12:00:39.809Z,633.00
2023-12-09T12:01:39.658Z,629.00
2023-12-09T12:02:40.721Z,629.00
2023-12-09T12:03:40.720Z,633.00
2023-12-09T12:04:40.636Z,624.00
2023-12-09T12:05:40.691Z,632.00
2023-12-09T12:06:40.754Z,629.00
2023-12-09T12:07:40.627Z,626.00
2023-12-09T12:08:40.613Z,631.00
2023-12-09T12:09:40.640Z,631.00
2023-12-09T12:10:40.592Z,627.00
2023-12-09T12:11:40.614Z,630.00
2023-12-09T12:12:40.642Z,627.00
2023-12-09T12:13:40.542Z,627.00
2023-12-09T12:14:40.531Z,630.00
2023-12-09T12:15:39.549Z,626.00
2023-12-09T12:16:40.551Z,630.00
2023-12-09T12:17:40.638Z,627.00
2023-12-09T12:18:40.607Z,624.00
2023-12-09T12:19:40.560Z,627.00
2023-12-09T12:20:40.484Z,627.00
2023-12-09T12:21:40.504Z,624.00
2023-12-09T12:22:40.472Z,630.00
2023-12-09T12:23:40.494Z,628.00
2023-12-09T12:24:39.501Z,624.00
2023-12-09T12:25:40.430Z,627.00
2023-12-09T12:26:40.458Z,626.00
2023-12-09T12:27:40.504Z,629.00
2023-12-09T12:28:40.417Z,629.00
2023-12-09T12:29:40.405Z,625.00
2023-12-09T12:30:40.440Z,627.00
2023-12-09T12:31:40.419Z,622.00
2023-12-09T12:32:40.414Z,629.00
2023-12-09T12:33:40.452Z,625.00
2023-12-09T12:34:40.480Z,627.00
2023-12-09T12:35:40.389Z,623.00
2023-12-09T12:36:40.404Z,627.00
2023-12-09T12:37:40.338Z,628.00
2023-12-09T12:38:40.319Z,627.00
2023-12-09T12:39:40.370Z,628.00
2023-12-09T12:40:40.299Z,629.00
2023-12-09T12:41:40.288Z,628.00
2023-12-09T12:42:40.360Z,624.00
2023-12-09T12:43:40.286Z,621.00
2023-12-09T12:44:40.261Z,623.00
2023-12-09T12:45:40.494Z,623.00
2023-12-09T12:46:40.252Z,627.00
2023-12-09T12:47:40.255Z,625.00
2023-12-09T12:48:40.456Z,625.00
2023-12-09T12:49:40.273Z,628.00
2023-12-09T12:50:40.230Z,624.00
2023-12-09T12:51:40.257Z,624.00
2023-12-09T12:52:40.192Z,625.00
2023-12-09T12:53:40.181Z,624.00
2023-12-09T12:54:40.200Z,625.00
2023-12-09T12:55:40.192Z,625.00
2023-12-09T12:56:40.181Z,627.00
2023-12-09T12:57:40.214Z,627.00
2023-12-09T12:58:40.143Z,630.00
2023-12-09T12:59:40.136Z,628.00
2023-12-09T13:00:40.277Z,626.00
2023-12-09T13:01:40.231Z,628.00
2023-12-09T13:02:40.123Z,627.00
2023-12-09T13:03:40.167Z,623.00
2023-12-09T13:04:40.079Z,623.00
2023-12-09T13:05:40.084Z,624.00
2023-12-09T13:06:40.199Z,628.00
2023-12-09T13:07:40.057Z,629.00
2023-12-09T13:08:40.062Z,624.00
2023-12-09T13:09:40.124Z,625.00
2023-12-09T13:10:40.039Z,625.00
2023-12-09T13:11:40.069Z,629.00
2023-12-09T13:12:40.064Z,626.00
2023-12-09T13:13:40.005Z,627.00
2023-12-09T13:14:39.990Z,627.00
2023-12-09T13:15:40.041Z,623.00
2023-12-09T13:16:40.008Z,623.00
2023-12-09T13:17:39.999Z,627.00
2023-12-09T13:18:41.088Z,622.00
2023-12-09T13:19:40.211Z,623.00
2023-12-09T13:20:39.939Z,623.00